createdAt,value
2018-06-28T00:00:14.275Z,98646.50
2018-06-28T00:01:18.676Z,98639.98
2018-06-28T00:02:21.899Z,98645.45
2018-06-28T00:03:24.679Z,98637.97
2018-06-28T00:04:27.925Z,98636.98
2018-06-28T00:05:30.721Z,98639.14
2018-06-28T00:06:34.664Z,98641.27
2018-06-28T00:07:37.444Z,98638.30
2018-06-28T00:08:40.298Z,98642.09
2018-06-28T00:09:43.646Z,98636.48
2018-06-28T00:10:47.058Z,98639.95
2018-06-28T00:11:50.839Z,98631.91
2018-06-28T00:12:53.855Z,98634.52
2018-06-28T00:13:56.704Z,98636.72
2018-06-28T00:14:59.486Z,98634.98
2018-06-28T00:16:02.265Z,98632.27
2018-06-28T00:17:06.591Z,98633.81
2018-06-28T00:18:09.413Z,98638.74
2018-06-28T00:19:12.238Z,98642.24
2018-06-28T00:20:15.832Z,98638.61
2018-06-28T00:21:18.653Z,98638.41
2018-06-28T00:22:23.631Z,98640.75
2018-06-28T00:23:27.489Z,98640.16
2018-06-28T00:24:30.311Z,98638.36
2018-06-28T00:25:33.079Z,98634.02
2018-06-28T00:26:36.421Z,98631.97
2018-06-28T00:27:39.833Z,98634.56
2018-06-28T00:28:42.681Z,98634.91
2018-06-28T00:29:45.999Z,98630.55
2018-06-28T00:30:48.758Z,98632.82
2018-06-28T00:31:51.566Z,98632.03
2018-06-28T00:32:54.366Z,98642.42
2018-06-28T00:33:57.737Z,98637.94
2018-06-28T00:35:00.550Z,98638.28
2018-06-28T00:36:03.842Z,98636.44
2018-06-28T00:37:06.633Z,98642.15
2018-06-28T00:38:10.827Z,98634.69
2018-06-28T00:39:14.443Z,98637.03
2018-06-28T00:40:18.249Z,98632.45
2018-06-28T00:41:21.061Z,98631.67
2018-06-28T00:42:24.347Z,98633.62
2018-06-28T00:43:27.293Z,98634.16
2018-06-28T00:44:30.097Z,98634.77
2018-06-28T00:45:32.953Z,98638.53
2018-06-28T00:46:35.731Z,98639.79
2018-06-28T00:47:38.518Z,98643.02
2018-06-28T00:48:42.579Z,98640.52
2018-06-28T00:49:45.401Z,98636.75
2018-06-28T00:50:48.214Z,98636.62
2018-06-28T00:51:52.565Z,98637.51
2018-06-28T00:52:55.359Z,98640.16
2018-06-28T00:53:58.161Z,98641.30
2018-06-28T00:55:01.467Z,98638.32
2018-06-28T00:56:04.426Z,98648.76
2018-06-28T00:57:07.203Z,98647.81
2018-06-28T00:58:10.030Z,98645.17
2018-06-28T00:59:13.647Z,98647.31
2018-06-28T01:00:16.542Z,98649.00
2018-06-28T01:01:19.755Z,98646.61
2018-06-28T01:02:22.522Z,98647.03
2018-06-28T01:03:25.273Z,98649.14
2018-06-28T01:04:28.049Z,98645.81
2018-06-28T01:05:30.819Z,98642.42
2018-06-28T01:06:33.576Z,98648.37
2018-06-28T01:07:36.767Z,98643.48
2018-06-28T01:08:39.567Z,98649.30
2018-06-28T01:09:42.325Z,98644.52
2018-06-28T01:10:45.729Z,98644.87
2018-06-28T01:11:48.508Z,98647.06
2018-06-28T01:12:51.277Z,98642.84
2018-06-28T01:13:54.381Z,98640.99
2018-06-28T01:14:57.190Z,98648.09
2018-06-28T01:15:59.954Z,98646.02
2018-06-28T01:17:02.740Z,98647.61
2018-06-28T01:18:05.593Z,98653.33
2018-06-28T01:19:08.826Z,98647.13
2018-06-28T01:20:12.059Z,98647.47
2018-06-28T01:21:18.505Z,98647.81
2018-06-28T01:22:21.418Z,98649.63
2018-06-28T01:23:24.196Z,98648.59
2018-06-28T01:24:27.523Z,98648.36
2018-06-28T01:25:39.593Z,98644.24
2018-06-28T01:26:42.390Z,98652.14
2018-06-28T01:27:45.210Z,98646.42
2018-06-28T01:28:47.966Z,98650.44
2018-06-28T01:29:50.728Z,98651.34
2018-06-28T01:30:53.628Z,98644.16
2018-06-28T01:31:56.785Z,98644.05
2018-06-28T01:32:59.570Z,98644.27
2018-06-28T01:34:02.362Z,98641.06
2018-06-28T01:35:05.211Z,98637.53
2018-06-28T01:36:07.992Z,98640.75
2018-06-28T01:37:10.760Z,98635.49
2018-06-28T01:38:14.037Z,98638.45
2018-06-28T01:39:16.811Z,98642.55
2018-06-28T01:40:19.700Z,98634.56
2018-06-28T01:41:22.525Z,98632.63
2018-06-28T01:42:25.311Z,98637.30
2018-06-28T01:43:28.083Z,98636.04
2018-06-28T01:44:31.224Z,98635.72
2018-06-28T01:45:33.996Z,98632.50
2018-06-28T01:46:36.773Z,98634.23
2018-06-28T01:47:42.157Z,98634.67
2018-06-28T01:48:45.047Z,98630.23
2018-06-28T01:49:47.825Z,98635.36
2018-06-28T01:50:51.004Z,98638.55
2018-06-28T01:51:53.800Z,98629.62
2018-06-28T01:52:56.626Z,98631.66
2018-06-28T01:53:59.378Z,98630.27
2018-06-28T01:55:02.239Z,98633.94
2018-06-28T01:56:05.114Z,98631.06
2018-06-28T01:57:08.380Z,98630.83
2018-06-28T01:58:11.170Z,98627.27
2018-06-28T01:59:15.441Z,98627.28
2018-06-28T02:00:18.234Z,98626.19
2018-06-28T02:01:21.029Z,98624.34
2018-06-28T02:02:23.825Z,98627.48
2018-06-28T02:03:27.051Z,98625.18
2018-06-28T02:04:29.869Z,98633.14
2018-06-28T02:05:32.689Z,98635.04
2018-06-28T02:06:35.491Z,98629.84
2018-06-28T02:07:38.252Z,98625.77
2018-06-28T02:08:41.052Z,98626.33
2018-06-28T02:09:44.284Z,98626.83
2018-06-28T02:10:47.098Z,98623.52
2018-06-28T02:11:49.895Z,98625.11
2018-06-28T02:12:52.686Z,98626.81
2018-06-28T02:13:55.458Z,98625.18
2018-06-28T02:14:58.269Z,98624.50
2018-06-28T02:16:01.526Z,98624.96
2018-06-28T02:17:04.532Z,98621.67
2018-06-28T02:18:07.623Z,98624.32
2018-06-28T02:19:10.437Z,98619.27
2018-06-28T02:20:13.267Z,98621.22
2018-06-28T02:21:16.078Z,98625.80
2018-06-28T02:22:19.173Z,98622.63
2018-06-28T02:23:21.963Z,98631.30
2018-06-28T02:24:24.753Z,98624.85
2018-06-28T02:25:27.709Z,98625.77
2018-06-28T02:26:30.494Z,98625.31
2018-06-28T02:27:33.297Z,98623.37
2018-06-28T02:28:36.432Z,98622.09
2018-06-28T02:29:39.224Z,98617.19
2018-06-28T02:30:43.113Z,98617.45
2018-06-28T02:31:45.863Z,98625.11
2018-06-28T02:32:48.707Z,98617.67
2018-06-28T02:33:51.504Z,98622.60
2018-06-28T02:34:54.752Z,98625.11
2018-06-28T02:35:57.556Z,98616.65
2018-06-28T02:37:00.364Z,98621.89
2018-06-28T02:38:03.151Z,98619.05
2018-06-28T02:39:05.942Z,98620.72
2018-06-28T02:40:08.775Z,98619.91
2018-06-28T02:41:11.918Z,98619.58
2018-06-28T02:42:14.726Z,98623.45
2018-06-28T02:43:17.472Z,98621.16
2018-06-28T02:44:20.248Z,98618.89
2018-06-28T02:45:23.042Z,98619.70
2018-06-28T02:46:26.538Z,98618.56
2018-06-28T02:47:29.890Z,98621.73
2018-06-28T02:48:32.695Z,98615.44
2018-06-28T02:49:35.503Z,98614.52
2018-06-28T02:50:38.310Z,98613.63
2018-06-28T02:51:41.161Z,98612.59
2018-06-28T02:52:43.954Z,98613.81
2018-06-28T02:53:46.737Z,98611.41
2018-06-28T02:54:49.787Z,98612.30
2018-06-28T02:55:52.573Z,98619.03
2018-06-28T02:56:55.361Z,98615.00
2018-06-28T02:57:58.326Z,98615.92
2018-06-28T02:59:01.590Z,98625.76
2018-06-28T03:00:04.355Z,98623.06
2018-06-28T03:01:07.159Z,98620.58
2018-06-28T03:02:09.939Z,98622.58
2018-06-28T03:03:12.745Z,98621.64
2018-06-28T03:04:15.562Z,98620.09
2018-06-28T03:05:18.826Z,98627.30
2018-06-28T03:06:22.305Z,98625.33
2018-06-28T03:08:33.838Z,98621.31
2018-06-28T03:09:36.867Z,98622.56
2018-06-28T03:10:39.671Z,98625.66
2018-06-28T03:11:43.440Z,98623.66
2018-06-28T03:12:46.557Z,98627.21
2018-06-28T03:13:49.811Z,98625.54
2018-06-28T03:14:52.641Z,98625.59
2018-06-28T03:15:55.822Z,98630.10
2018-06-28T03:16:58.977Z,98630.08
2018-06-28T03:18:03.324Z,98628.48
2018-06-28T03:19:06.685Z,98630.00
2018-06-28T03:20:09.497Z,98624.91
2018-06-28T03:21:12.376Z,98626.89
2018-06-28T03:22:15.214Z,98631.61
2018-06-28T03:23:17.997Z,98632.27
2018-06-28T03:24:21.167Z,98636.26
2018-06-28T03:25:23.944Z,98631.44
2018-06-28T03:26:26.964Z,98629.08
2018-06-28T03:27:29.858Z,98628.74
2018-06-28T03:28:32.660Z,98627.09
2018-06-28T03:29:35.488Z,98629.13
2018-06-28T03:30:38.706Z,98621.21
2018-06-28T03:31:41.721Z,98629.70
2018-06-28T03:32:44.519Z,98637.52
2018-06-28T03:33:47.516Z,98636.87
2018-06-28T03:34:50.760Z,98633.28
2018-06-28T03:35:53.637Z,98637.09
2018-06-28T03:36:57.975Z,98635.44
2018-06-28T03:38:00.901Z,98640.31
2018-06-28T03:39:03.983Z,98633.52
2018-06-28T03:40:06.803Z,98637.28
2018-06-28T03:41:09.653Z,98633.61
2018-06-28T03:42:12.469Z,98632.20
2018-06-28T03:43:15.241Z,98633.88
2018-06-28T03:44:18.427Z,98632.89
2018-06-28T03:45:21.488Z,98635.77
2018-06-28T03:46:24.285Z,98633.83
2018-06-28T03:47:28.400Z,98635.91
2018-06-28T03:48:31.735Z,98631.57
2018-06-28T03:49:34.992Z,98629.63
2018-06-28T03:50:37.791Z,98627.84
2018-06-28T03:51:41.187Z,98632.36
2018-06-28T03:52:47.806Z,98633.97
2018-06-28T03:53:51.438Z,98627.13
2018-06-28T03:54:54.596Z,98639.98
2018-06-28T03:55:57.391Z,98628.20
2018-06-28T03:57:00.271Z,98637.14
2018-06-28T03:58:04.282Z,98630.95
2018-06-28T03:59:07.075Z,98630.35
2018-06-28T04:00:09.870Z,98632.84
2018-06-28T04:01:13.228Z,98628.15
2018-06-28T04:02:16.067Z,98628.77
2018-06-28T04:03:18.956Z,98629.41
2018-06-28T04:04:22.247Z,98627.95
2018-06-28T04:05:25.038Z,98629.52
2018-06-28T04:06:27.887Z,98630.64
2018-06-28T04:07:31.057Z,98629.28
2018-06-28T04:08:34.274Z,98622.67
2018-06-28T04:09:37.407Z,98624.40
2018-06-28T04:10:41.069Z,98621.06
2018-06-28T04:11:44.086Z,98620.08
2018-06-28T04:12:47.465Z,98616.46
2018-06-28T04:13:50.273Z,98618.09
2018-06-28T04:14:53.210Z,98619.98
2018-06-28T04:15:56.053Z,98617.34
2018-06-28T04:16:59.284Z,98630.73
2018-06-28T04:18:02.357Z,98637.73
2018-06-28T04:19:06.070Z,98633.68
2018-06-28T04:20:08.987Z,98635.87
2018-06-28T04:21:12.080Z,98639.02
2018-06-28T04:22:19.390Z,98636.98
2018-06-28T04:23:22.721Z,98629.91
2018-06-28T04:24:26.238Z,98628.74
2018-06-28T04:25:29.903Z,98627.18
2018-06-28T04:26:32.987Z,98628.10
2018-06-28T04:27:36.104Z,98634.84
2018-06-28T04:28:39.276Z,98630.35
2018-06-28T04:29:42.957Z,98627.08
2018-06-28T04:30:46.179Z,98629.22
2018-06-28T04:31:49.329Z,98627.41
2018-06-28T04:32:52.328Z,98628.34
2018-06-28T04:33:55.124Z,98632.20
2018-06-28T04:34:57.931Z,98632.10
2018-06-28T04:36:02.111Z,98635.66
2018-06-28T04:37:05.607Z,98636.20
2018-06-28T04:38:08.691Z,98639.61
2018-06-28T04:39:13.335Z,98639.13
2018-06-28T04:40:16.535Z,98633.17
2018-06-28T04:41:19.568Z,98637.76
2018-06-28T04:42:22.555Z,98637.17
2018-06-28T04:43:26.168Z,98639.28
2018-06-28T04:44:29.296Z,98636.50
2018-06-28T04:45:32.493Z,98637.95
2018-06-28T04:46:35.691Z,98631.70
2018-06-28T04:47:38.825Z,98637.23
2018-06-28T04:48:41.778Z,98636.63
2018-06-28T04:49:45.824Z,98636.70
2018-06-28T04:50:48.716Z,98637.66
2018-06-28T04:51:51.756Z,98629.61
2018-06-28T04:52:54.818Z,98636.66
2018-06-28T04:53:57.609Z,98626.59
2018-06-28T04:55:00.720Z,98633.85
2018-06-28T04:56:05.392Z,98631.63
2018-06-28T04:57:08.217Z,98629.87
2018-06-28T04:58:11.517Z,98632.78
2018-06-28T04:59:14.346Z,98620.31
2018-06-28T05:00:17.133Z,98624.73
2018-06-28T05:01:21.048Z,98625.01
2018-06-28T05:02:24.297Z,98624.56
2018-06-28T05:03:27.097Z,98623.88
2018-06-28T05:04:29.934Z,98623.34
2018-06-28T05:05:33.689Z,98616.30
2018-06-28T05:06:36.498Z,98619.99
2018-06-28T05:07:39.373Z,98618.38
2018-06-28T05:08:42.610Z,98620.52
2018-06-28T05:09:45.393Z,98624.41
2018-06-28T05:10:48.235Z,98621.09
2018-06-28T05:11:51.048Z,98619.25
2018-06-28T05:12:53.906Z,98617.52
2018-06-28T05:13:56.719Z,98614.88
2018-06-28T05:14:59.549Z,98619.47
2018-06-28T05:16:02.351Z,98616.25
2018-06-28T05:17:06.393Z,98618.55
2018-06-28T05:18:11.227Z,98614.08
2018-06-28T05:19:14.050Z,98616.92
2018-06-28T05:20:19.272Z,98616.47
2018-06-28T05:21:22.132Z,98617.52
2018-06-28T05:22:25.978Z,98619.59
2018-06-28T05:23:28.855Z,98615.73
2018-06-28T05:24:31.655Z,98620.73
2018-06-28T05:25:34.468Z,98625.92
2018-06-28T05:26:37.750Z,98621.73
2018-06-28T05:27:40.562Z,98620.73
2018-06-28T05:28:43.415Z,98619.59
2018-06-28T05:29:46.443Z,98623.39
2018-06-28T05:30:49.258Z,98622.84
2018-06-28T05:31:52.068Z,98628.00
2018-06-28T05:32:55.473Z,98623.34
2018-06-28T05:33:58.542Z,98619.02
2018-06-28T05:35:01.372Z,98621.77
2018-06-28T05:36:04.207Z,98625.31
2018-06-28T05:37:07.088Z,98624.17
2018-06-28T05:38:09.903Z,98623.03
2018-06-28T05:39:13.146Z,98624.95
2018-06-28T05:40:15.932Z,98622.69
2018-06-28T05:41:18.778Z,98620.84
2018-06-28T05:42:22.223Z,98628.32
2018-06-28T05:43:25.022Z,98627.39
2018-06-28T05:44:28.302Z,98621.31
2018-06-28T05:45:31.651Z,98618.02
2018-06-28T05:46:38.136Z,98619.03
2018-06-28T05:47:44.153Z,98619.94
2018-06-28T05:48:47.898Z,98623.16
2018-06-28T05:49:51.370Z,98620.41
2018-06-28T05:50:58.788Z,98616.29
2018-06-28T05:52:02.057Z,98615.62
2018-06-28T05:53:04.939Z,98609.31
2018-06-28T05:54:07.764Z,98614.67
2018-06-28T05:55:11.406Z,98618.77
2018-06-28T05:56:14.218Z,98620.15
2018-06-28T05:57:17.641Z,98611.68
2018-06-28T05:58:20.952Z,98615.02
2018-06-28T05:59:23.792Z,98610.53
2018-06-28T06:00:26.584Z,98613.23
2018-06-28T06:01:29.403Z,98606.34
2018-06-28T06:02:33.289Z,98609.05
2018-06-28T06:03:36.130Z,98608.55
2018-06-28T06:04:39.424Z,98612.56
2018-06-28T06:05:42.227Z,98609.95
2018-06-28T06:06:45.016Z,98606.95
2018-06-28T06:07:48.403Z,98607.16
2018-06-28T06:08:52.218Z,98601.94
2018-06-28T06:09:55.058Z,98609.61
2018-06-28T06:10:58.164Z,98612.30
2018-06-28T06:12:01.038Z,98612.80
2018-06-28T06:13:03.851Z,98615.12
2018-06-28T06:14:06.646Z,98604.73
2018-06-28T06:15:09.458Z,98606.47
2018-06-28T06:16:12.292Z,98607.12
2018-06-28T06:17:15.401Z,98602.20
2018-06-28T06:18:18.211Z,98606.47
2018-06-28T06:19:21.035Z,98608.36
2018-06-28T06:20:24.584Z,98608.55
2018-06-28T06:21:27.404Z,98608.59
2018-06-28T06:22:30.215Z,98609.11
2018-06-28T06:23:33.569Z,98604.75
2018-06-28T06:24:36.802Z,98607.30
2018-06-28T06:25:42.620Z,98602.58
2018-06-28T06:26:45.421Z,98606.06
2018-06-28T06:27:48.231Z,98610.98
2018-06-28T06:28:51.048Z,98606.43
2018-06-28T06:29:54.189Z,98608.85
2018-06-28T06:30:56.978Z,98610.45
2018-06-28T06:31:59.749Z,98607.95
2018-06-28T06:33:03.282Z,98607.98
2018-06-28T19:34:03.201Z,98197.45
2018-06-28T21:47:58.486Z,98240.63
2018-06-28T21:49:06.603Z,98242.02
2018-06-28T21:50:25.417Z,98244.78
2018-06-28T21:54:16.601Z,98240.63
2018-06-28T21:55:20.964Z,98239.84
2018-06-28T21:57:43.173Z,98240.22
2018-06-28T22:03:54.502Z,98243.80
2018-06-28T22:04:58.786Z,98239.64
2018-06-28T22:06:15.687Z,98238.45
2018-06-28T22:07:29.164Z,98239.78
2018-06-28T22:13:20.033Z,98239.38
2018-06-28T22:14:22.908Z,98237.78
2018-06-28T22:15:28.756Z,98237.98
2018-06-28T22:16:32.387Z,98235.61
2018-06-28T22:17:36.367Z,98240.78
2018-06-28T22:18:39.182Z,98239.77
2018-06-28T22:19:55.361Z,98239.21
2018-06-28T22:22:26.258Z,98236.39
2018-06-28T22:23:38.457Z,98236.59
2018-06-28T22:29:24.448Z,98243.25
